createdAt,value
2019-01-06T00:01:47.824Z,101743.00
2019-01-06T00:04:42.219Z,101749.39
2019-01-06T00:07:34.883Z,101757.88
2019-01-06T00:13:08.281Z,101752.74
2019-01-06T00:16:00.949Z,101757.02
2019-01-06T00:18:53.603Z,101759.53
2019-01-06T00:21:46.240Z,101754.45
2019-01-06T00:24:38.879Z,101755.31
2019-01-06T00:27:31.549Z,101762.48
2019-01-06T00:33:30.589Z,101763.34
2019-01-06T00:36:23.219Z,101765.49
2019-01-06T00:39:16.434Z,101766.73
2019-01-06T00:45:03.558Z,101773.50
2019-01-06T00:50:50.323Z,101787.90
2019-01-06T00:53:42.991Z,101796.83
2019-01-06T00:56:35.632Z,101795.56
2019-01-06T00:59:28.200Z,101801.09
2019-01-06T01:02:20.861Z,101797.25
2019-01-06T01:05:13.506Z,101803.52
2019-01-06T01:08:25.448Z,101807.83
2019-01-06T01:11:18.081Z,101806.55
2019-01-06T01:14:10.743Z,101815.52
2019-01-06T01:17:03.387Z,101817.67
2019-01-06T01:22:55.844Z,101819.72
2019-01-06T01:28:48.182Z,101818.04
2019-01-06T01:31:40.861Z,101818.50
2019-01-06T01:34:53.557Z,101815.52
2019-01-06T01:37:46.206Z,101818.06
2019-01-06T01:43:24.315Z,101818.52
2019-01-06T01:49:11.352Z,101813.02
2019-01-06T01:52:03.989Z,101807.05
2019-01-06T01:54:57.042Z,101808.31
2019-01-06T01:57:49.681Z,101809.59
2019-01-06T02:03:22.519Z,101804.50
2019-01-06T02:08:55.603Z,101821.45
2019-01-06T02:11:48.251Z,101823.98
2019-01-06T02:14:41.048Z,101837.61
2019-01-06T02:17:33.711Z,101834.25
2019-01-06T02:20:26.624Z,101834.67
2019-01-06T02:23:19.388Z,101839.35
2019-01-06T02:26:12.095Z,101836.78
2019-01-06T02:29:04.753Z,101840.20
2019-01-06T02:31:57.447Z,101834.67
2019-01-06T02:37:44.294Z,101835.09
2019-01-06T02:40:37.004Z,101832.56
2019-01-06T02:43:29.730Z,101834.25
2019-01-06T02:49:16.509Z,101829.14
2019-01-06T02:57:47.878Z,101833.38
2019-01-06T03:00:40.541Z,101849.03
2019-01-06T03:03:33.502Z,101846.06
2019-01-06T03:06:26.266Z,101849.44
2019-01-06T03:09:18.987Z,101846.02
2019-01-06T03:12:11.665Z,101858.28
2019-01-06T03:20:32.141Z,101842.25
2019-01-06T03:23:24.785Z,101843.52
2019-01-06T03:26:17.492Z,101842.25
2019-01-06T03:29:10.165Z,101844.39
2019-01-06T03:34:47.282Z,101853.32
2019-01-06T03:37:39.931Z,101855.02
2019-01-06T03:40:32.643Z,101857.13
2019-01-06T03:46:19.589Z,101860.43
2019-01-06T03:49:12.277Z,101854.09
2019-01-06T03:52:04.979Z,101856.67
2019-01-06T03:57:51.779Z,101857.52
2019-01-06T04:00:44.455Z,101846.89
2019-01-06T04:06:21.784Z,101842.23
2019-01-06T04:09:14.435Z,101846.89
2019-01-06T04:14:47.584Z,101852.85
2019-01-06T04:17:40.248Z,101852.44
2019-01-06T04:20:32.949Z,101857.56
2019-01-06T04:23:25.612Z,101852.44
2019-01-06T04:26:18.446Z,101849.03
2019-01-06T04:29:11.103Z,101840.97
2019-01-06T04:32:03.897Z,101848.20
2019-01-06T04:34:56.549Z,101845.66
2019-01-06T04:37:49.359Z,101846.50
2019-01-06T04:40:42.008Z,101837.13
2019-01-06T04:43:34.825Z,101839.67
2019-01-06T04:46:27.484Z,101834.13
2019-01-06T04:54:44.777Z,101831.13
2019-01-06T04:57:37.545Z,101831.13
2019-01-06T05:00:30.243Z,101827.30
2019-01-06T05:03:22.895Z,101835.80
2019-01-06T05:06:15.595Z,101834.53
2019-01-06T05:09:08.249Z,101836.20
2019-01-06T05:12:00.952Z,101843.83
2019-01-06T05:14:53.603Z,101840.44
2019-01-06T05:17:46.329Z,101841.27
2019-01-06T05:20:39.004Z,101847.66
2019-01-06T05:26:11.903Z,101851.05
2019-01-06T05:29:04.554Z,101851.91
2019-01-06T05:31:57.246Z,101856.95
2019-01-06T05:34:49.921Z,101856.95
2019-01-06T05:37:42.724Z,101857.41
2019-01-06T05:40:35.399Z,101859.46
2019-01-06T05:43:28.100Z,101863.70
2019-01-06T05:46:20.750Z,101864.55
2019-01-06T05:49:13.466Z,101865.83
2019-01-06T05:55:00.295Z,101864.45
2019-01-06T05:57:52.950Z,101863.61
2019-01-06T06:00:45.738Z,101859.81
2019-01-06T06:03:38.395Z,101868.30
2019-01-06T06:06:31.111Z,101882.31
2019-01-06T06:12:36.946Z,101873.45
2019-01-06T06:15:29.610Z,101880.70
2019-01-06T06:18:22.334Z,101878.17
2019-01-06T06:21:14.993Z,101879.45
2019-01-06T06:24:07.764Z,101879.88
2019-01-06T06:27:00.421Z,101888.77
2019-01-06T06:29:53.223Z,101883.69
2019-01-06T06:32:45.879Z,101880.33
2019-01-06T06:35:38.669Z,101885.87
2019-01-06T06:38:31.328Z,101888.42
2019-01-06T06:41:24.038Z,101896.04
2019-01-06T06:44:16.720Z,101890.94
2019-01-06T06:47:09.396Z,101897.73
2019-01-06T06:50:02.078Z,101899.03
2019-01-06T06:52:54.930Z,101899.45
2019-01-06T06:55:47.592Z,101900.73
2019-01-06T07:01:45.197Z,101907.56
2019-01-06T07:04:37.869Z,101906.68
2019-01-06T07:10:14.296Z,101909.59
2019-01-06T07:16:01.097Z,101913.48
2019-01-06T07:18:53.759Z,101919.05
2019-01-06T07:21:47.804Z,101921.59
2019-01-06T07:27:35.082Z,101933.55
2019-01-06T07:30:27.746Z,101936.52
2019-01-06T07:33:20.442Z,101935.16
2019-01-06T07:36:13.112Z,101936.05
2019-01-06T07:41:50.285Z,101946.72
2019-01-06T07:44:42.961Z,101950.99
2019-01-06T07:47:35.664Z,101960.39
2019-01-06T07:53:22.535Z,101963.84
2019-01-06T07:59:09.389Z,101975.36
2019-01-06T08:02:02.086Z,101976.66
2019-01-06T08:04:54.834Z,101975.41
2019-01-06T08:07:47.500Z,101974.98
2019-01-06T08:10:40.238Z,101974.53
2019-01-06T08:19:07.244Z,101988.54
2019-01-06T08:21:59.898Z,101988.14
2019-01-06T08:24:52.709Z,101992.84
2019-01-06T08:27:45.372Z,101991.09
2019-01-06T08:30:38.078Z,102000.00
2019-01-06T08:33:30.785Z,102002.94
2019-01-06T08:36:23.476Z,102001.74
2019-01-06T08:39:16.160Z,101998.84
2019-01-06T08:42:08.948Z,101998.86
2019-01-06T08:45:01.631Z,102001.01
2019-01-06T08:53:22.353Z,102004.03
2019-01-06T08:59:09.205Z,102006.63
2019-01-06T09:02:01.885Z,102002.39
2019-01-06T09:04:54.595Z,102003.66
2019-01-06T09:07:47.247Z,102011.34
2019-01-06T09:13:20.590Z,102018.59
2019-01-06T09:16:13.288Z,102016.04
2019-01-06T09:19:06.035Z,102016.48
2019-01-06T09:21:58.704Z,102017.77
2019-01-06T09:24:51.413Z,102015.65
2019-01-06T09:27:44.077Z,102017.80
2019-01-06T09:30:36.783Z,102021.20
2019-01-06T09:33:29.463Z,102024.22
2019-01-06T09:36:22.159Z,102019.94
2019-01-06T09:42:20.955Z,102024.20
2019-01-06T09:45:13.621Z,102020.00
2019-01-06T09:48:06.324Z,102022.17
2019-01-06T09:50:59.000Z,102019.63
2019-01-06T09:53:51.699Z,102018.80
2019-01-06T09:56:44.360Z,102023.88
2019-01-06T09:59:37.156Z,102024.23
2019-01-06T10:02:29.825Z,102017.92
2019-01-06T10:05:22.696Z,102011.55
2019-01-06T10:08:15.360Z,102008.58
2019-01-06T10:11:08.061Z,102007.33
2019-01-06T10:14:02.628Z,102007.36
2019-01-06T10:16:55.385Z,102005.26
2019-01-06T10:25:22.657Z,102010.38
2019-01-06T10:28:15.408Z,102017.15
2019-01-06T10:31:08.089Z,102016.73
2019-01-06T10:34:00.760Z,102018.43
2019-01-06T10:36:53.469Z,102013.26
2019-01-06T10:39:46.147Z,102014.12
2019-01-06T10:42:38.936Z,102014.53
2019-01-06T10:48:25.760Z,102009.41
2019-01-06T10:51:18.437Z,102005.59
2019-01-06T10:54:11.137Z,102003.40
2019-01-06T10:57:03.810Z,101996.66
2019-01-06T10:59:56.501Z,101999.18
2019-01-06T11:02:49.184Z,101996.69
2019-01-06T11:05:41.968Z,101999.70
2019-01-06T11:08:34.630Z,101989.48
2019-01-06T11:11:27.413Z,101991.62
2019-01-06T11:17:14.213Z,102002.20
2019-01-06T11:20:06.809Z,102007.72
2019-01-06T11:22:59.503Z,102010.77
2019-01-06T11:25:52.173Z,102010.77
2019-01-06T11:28:44.872Z,102010.78
2019-01-06T11:31:37.530Z,102008.62
2019-01-06T11:34:30.222Z,101998.70
2019-01-06T11:37:22.890Z,102003.80
2019-01-06T11:40:15.589Z,102003.89
2019-01-06T11:43:08.252Z,102002.17
2019-01-06T11:46:00.954Z,102002.20
2019-01-06T11:54:28.158Z,101988.23
2019-01-06T12:00:14.937Z,101997.99
2019-01-06T12:03:07.603Z,101995.42
2019-01-06T12:08:41.378Z,101991.11
2019-01-06T12:11:35.170Z,101994.53
2019-01-06T12:14:27.867Z,101992.02
2019-01-06T12:17:20.513Z,101984.80
2019-01-06T12:20:13.405Z,101985.65
2019-01-06T12:23:06.066Z,101991.22
2019-01-06T12:25:58.761Z,101992.49
2019-01-06T12:31:45.623Z,101994.18
2019-01-06T12:34:38.285Z,101993.33
2019-01-06T12:37:30.978Z,101993.78
2019-01-06T12:43:42.781Z,101996.75
2019-01-06T12:46:35.442Z,101995.89
2019-01-06T12:49:28.153Z,102003.12
2019-01-06T12:52:20.872Z,102002.23
2019-01-06T12:57:53.862Z,102002.27
2019-01-06T13:00:46.531Z,102000.98
2019-01-06T13:03:39.224Z,102000.98
2019-01-06T13:09:46.779Z,102004.37
2019-01-06T13:12:39.452Z,102003.12
2019-01-06T13:18:15.934Z,102000.13
2019-01-06T13:21:08.602Z,101995.40
2019-01-06T13:24:01.286Z,101997.09
2019-01-06T13:26:53.961Z,101997.89
2019-01-06T13:29:46.827Z,102004.69
2019-01-06T13:35:33.598Z,102009.44
2019-01-06T13:38:26.275Z,102002.61
2019-01-06T13:41:19.062Z,102005.15
2019-01-06T13:44:11.731Z,102007.30
2019-01-06T13:47:04.425Z,102011.58
2019-01-06T13:55:35.825Z,102014.61
2019-01-06T13:58:30.651Z,102021.83
2019-01-06T14:01:23.452Z,102021.83
2019-01-06T14:04:16.203Z,102020.56
2019-01-06T14:07:08.925Z,102018.88
2019-01-06T14:10:01.589Z,102020.52
2019-01-06T14:15:38.357Z,102019.69
2019-01-06T14:18:31.013Z,102015.03
2019-01-06T14:21:23.721Z,102005.67
2019-01-06T14:24:16.381Z,102015.05
2019-01-06T14:27:09.110Z,102013.36
2019-01-06T14:30:01.768Z,102011.21
2019-01-06T14:32:54.481Z,102009.52
2019-01-06T14:35:47.147Z,102020.16
2019-01-06T14:38:39.857Z,102014.61
2019-01-06T14:41:32.513Z,102018.01
2019-01-06T14:44:25.229Z,102017.60
2019-01-06T14:47:17.881Z,102018.43
2019-01-06T14:50:10.582Z,102014.59
2019-01-06T14:53:03.234Z,102021.40
2019-01-06T14:55:55.953Z,102013.31
2019-01-06T14:58:48.612Z,102016.33
2019-01-06T15:01:41.407Z,102020.58
2019-01-06T15:04:34.092Z,102028.66
2019-01-06T15:10:07.442Z,102031.12
2019-01-06T15:15:54.236Z,102032.42
2019-01-06T15:18:46.894Z,102034.58
2019-01-06T15:24:26.633Z,102033.30
2019-01-06T15:27:19.403Z,102031.61
2019-01-06T15:30:12.072Z,102038.41
2019-01-06T15:35:45.037Z,102041.42
2019-01-06T15:38:37.749Z,102043.94
2019-01-06T15:41:30.401Z,102047.80
2019-01-06T15:44:23.214Z,102054.61
2019-01-06T15:47:15.866Z,102052.88
2019-01-06T15:52:48.823Z,102051.18
2019-01-06T15:55:41.594Z,102050.36
2019-01-06T15:58:34.274Z,102053.33
2019-01-06T16:04:26.693Z,102062.27
2019-01-06T16:07:19.418Z,102060.16
2019-01-06T16:10:12.077Z,102055.49
2019-01-06T16:13:04.774Z,102059.73
2019-01-06T16:15:57.433Z,102061.87
2019-01-06T16:24:11.272Z,102060.59
2019-01-06T16:27:03.925Z,102059.30
2019-01-06T16:29:56.617Z,102062.28
2019-01-06T16:32:49.281Z,102060.53
2019-01-06T16:35:41.987Z,102061.38
2019-01-06T16:38:34.648Z,102058.84
2019-01-06T16:41:27.442Z,102061.81
2019-01-06T16:44:20.095Z,102057.98
2019-01-06T16:47:12.798Z,102060.12
2019-01-06T16:50:05.464Z,102066.95
2019-01-06T16:52:58.146Z,102065.67
2019-01-06T16:58:44.933Z,102062.30
2019-01-06T17:01:37.565Z,102063.97
2019-01-06T17:07:10.723Z,102066.52
2019-01-06T17:10:03.518Z,102063.96
2019-01-06T17:12:56.181Z,102066.53
2019-01-06T17:18:33.268Z,102069.05
2019-01-06T17:21:25.862Z,102074.16
2019-01-06T17:24:18.573Z,102066.87
2019-01-06T17:27:11.237Z,102064.34
2019-01-06T17:30:03.939Z,102060.09
2019-01-06T17:32:56.635Z,102069.90
2019-01-06T17:35:49.327Z,102067.74
2019-01-06T17:38:42.016Z,102069.72
2019-01-06T17:41:34.800Z,102073.19
2019-01-06T17:47:21.597Z,102067.23
2019-01-06T17:50:14.231Z,102073.08
2019-01-06T17:53:06.934Z,102075.28
2019-01-06T17:55:59.596Z,102080.39
2019-01-06T17:58:52.332Z,102086.76
2019-01-06T18:01:44.985Z,102087.66
2019-01-06T18:04:37.696Z,102088.91
2019-01-06T18:13:30.677Z,102089.70
2019-01-06T18:16:23.373Z,102094.80
2019-01-06T18:22:10.248Z,102087.92
2019-01-06T18:27:57.030Z,102093.48
2019-01-06T18:30:49.689Z,102093.48
2019-01-06T18:33:42.389Z,102090.10
2019-01-06T18:36:35.049Z,102091.80
2019-01-06T18:42:13.574Z,102087.13
2019-01-06T18:45:09.193Z,102092.28
2019-01-06T18:48:00.709Z,102090.48
2019-01-06T18:50:53.411Z,102086.68
2019-01-06T18:56:40.191Z,102087.97
2019-01-06T18:59:32.922Z,102082.85
2019-01-06T19:02:25.626Z,102084.20
2019-01-06T19:05:18.268Z,102085.84
2019-01-06T19:08:10.894Z,102087.17
2019-01-06T19:11:03.625Z,102091.83
2019-01-06T19:13:56.311Z,102085.91
2019-01-06T19:16:48.897Z,102093.58
2019-01-06T19:22:26.003Z,102087.17
2019-01-06T19:30:57.249Z,102093.12
2019-01-06T19:33:49.953Z,102089.72
2019-01-06T19:36:42.639Z,102088.48
2019-01-06T19:39:35.389Z,102088.47
2019-01-06T19:42:28.071Z,102088.44
2019-01-06T19:45:20.764Z,102093.12
2019-01-06T19:48:13.425Z,102091.05
2019-01-06T19:51:06.227Z,102088.87
2019-01-06T19:53:59.103Z,102088.00
2019-01-06T19:56:52.128Z,102102.01
2019-01-06T19:59:44.779Z,102095.66
2019-01-06T20:02:29.837Z,102096.10
2019-01-06T20:05:22.581Z,102093.55
2019-01-06T20:08:15.315Z,102095.23
2019-01-06T20:11:08.040Z,102088.83
2019-01-06T20:14:00.857Z,102088.44
2019-01-06T20:16:53.513Z,102096.55
2019-01-06T20:19:46.307Z,102090.15
2019-01-06T20:25:33.199Z,102083.73
2019-01-06T20:31:20.068Z,102088.84
2019-01-06T20:34:12.750Z,102088.86
2019-01-06T20:37:05.522Z,102095.25
2019-01-06T20:39:58.174Z,102085.42
2019-01-06T20:45:31.353Z,102085.44
2019-01-06T20:48:24.054Z,102087.14
2019-01-06T20:51:17.171Z,102089.30
2019-01-06T20:54:10.062Z,102088.89
2019-01-06T20:57:03.100Z,102087.63
2019-01-06T20:59:56.141Z,102088.02
2019-01-06T21:02:48.798Z,102075.70
2019-01-06T21:05:41.523Z,102078.66
2019-01-06T21:11:28.626Z,102076.10
2019-01-06T21:14:21.293Z,102079.51
2019-01-06T21:19:54.492Z,102081.65
2019-01-06T21:22:47.217Z,102082.95
2019-01-06T21:25:39.932Z,102086.38
2019-01-06T21:28:32.709Z,102086.44
2019-01-06T21:31:25.382Z,102088.13
2019-01-06T21:34:18.093Z,102095.73
2019-01-06T21:37:10.757Z,102095.72
2019-01-06T21:40:03.489Z,102091.03
2019-01-06T21:42:56.157Z,102090.61
2019-01-06T21:45:49.042Z,102087.66
2019-01-06T21:48:41.719Z,102089.84
2019-01-06T21:54:18.304Z,102098.34
2019-01-06T21:57:11.027Z,102091.91
2019-01-06T22:00:03.919Z,102088.89
2019-01-06T22:02:56.626Z,102100.74
2019-01-06T22:05:49.289Z,102102.44
2019-01-06T22:08:41.984Z,102095.25
2019-01-06T22:11:34.639Z,102092.70
2019-01-06T22:14:27.339Z,102092.31
2019-01-06T22:17:20.023Z,102090.19
2019-01-06T22:20:12.724Z,102091.87
2019-01-06T22:23:05.726Z,102085.51
2019-01-06T22:25:58.512Z,102089.77
2019-01-06T22:28:52.314Z,102086.30
2019-01-06T22:31:45.601Z,102086.30
2019-01-06T22:37:32.387Z,102082.47
2019-01-06T22:43:44.308Z,102081.59
2019-01-06T22:52:15.732Z,102080.33
2019-01-06T22:55:08.427Z,102077.72
2019-01-06T22:58:01.127Z,102071.34
2019-01-06T23:00:53.814Z,102078.17
2019-01-06T23:03:46.505Z,102085.35
2019-01-06T23:06:39.268Z,102094.29
2019-01-06T23:09:31.882Z,102094.71
2019-01-06T23:12:24.681Z,102098.52
2019-01-06T23:15:17.362Z,102095.56
2019-01-06T23:18:10.039Z,102096.79
2019-01-06T23:26:37.134Z,102100.22
2019-01-06T23:29:29.909Z,102097.19
2019-01-06T23:32:22.637Z,102100.17
2019-01-06T23:35:15.434Z,102095.52
2019-01-06T23:38:08.123Z,102095.91
2019-01-06T23:41:00.841Z,102109.10
2019-01-06T23:43:53.510Z,102107.82
2019-01-06T23:46:46.276Z,102109.87
2019-01-06T23:49:39.063Z,102114.55
2019-01-06T23:52:31.786Z,102106.83
